Miri Airport
WBGR : now visible

Airfield :











YOU CAN JOIN US ON...

 
LOGIN :

Register | Disclaimer

   EN    FR    IT 

 









Legend :    VFR   Marginal VFR   IFR   Intensive IFR   Very Intensive IFR
Visi :
Ceiling :
>= 8 km
>= 3000ft
5 to 8 km
1000 to 3000 ft
1500m to 5 km
500 to 1000 ft
800 to 1500m
200 to 500 ft
< 800m
< 200 ft
Symbols :   Thunderstorms  Fog  Heavy snow  Heavy precipitations  Wind > 20 kt






- Airport Elevation : 59 ft
- IATA code : MYY


WBGR - Miri

CURRENT METAR :
  • 170100Z 27007KT 210V350 4000 RA SCT016 25/25 Q1011

EXPIRED METARs :
  • 170000Z 13004KT 090V170 9999 FEW015CB SCT016 27/25 Q1010
  • 162300Z VRB03KT 9999 FEW015CB SCT016 27/25 Q1009
  • 162200Z 00000KT 9999 FEW015CB SCT016 26/25 Q1009
  • 162100Z VRB02KT 9999 FEW015CB SCT016 26/25 Q1008

TAF TAF WBGR
Valid from the 17 at 00:00 until the 18 at 00:00 UTC


162300Z 1700/1800 13005KT 9999 SCT016
TEMPO 1700/1704 4000 TSRA FEW015CB SCT014
WBFC FIR / Asia



MET'MAP, your aeronautical weather chart ! - Copyright ORBIFLY December 2007 - Disclaimer

ORBIFLY MET'MAP TEAM :

Programming & Development : Alexandra Zaïnal
Original concept : Baudouin d'Aumeries
Technical & hardware support : Manuel Goepfert
Assistance : Marc-Olivier Méhu




SOURCES & CREDITS :

   NOAA       Earth
Advisory